createdAt,value
2018-05-18T00:01:06.058Z,52.70
2018-05-18T00:03:34.321Z,52.40
2018-05-18T00:06:03.011Z,51.90
2018-05-18T00:08:30.556Z,51.90
2018-05-18T00:10:58.882Z,51.90
2018-05-18T00:13:26.400Z,51.80
2018-05-18T00:15:54.358Z,52.20
2018-05-18T00:18:21.865Z,52.20
2018-05-18T00:20:49.481Z,52.60
2018-05-18T00:23:17.777Z,52.80
2018-05-18T00:25:45.254Z,52.70
2018-05-18T00:28:12.746Z,53.10
2018-05-18T00:30:40.215Z,53.30
2018-05-18T00:33:07.765Z,53.90
2018-05-18T00:35:36.008Z,53.20
2018-05-18T00:38:03.486Z,53.20
2018-05-18T00:40:31.863Z,52.90
2018-05-18T00:42:59.356Z,52.80
2018-05-18T00:45:26.845Z,52.80
2018-05-18T00:47:54.540Z,53.30
2018-05-18T00:50:22.023Z,53.00
2018-05-18T00:52:49.542Z,53.50
2018-05-18T00:55:29.035Z,53.40
2018-05-18T00:57:56.521Z,52.90
2018-05-18T01:00:23.995Z,52.80
2018-05-18T01:02:51.491Z,52.50
2018-05-18T01:05:19.002Z,52.90
2018-05-18T01:07:47.645Z,53.20
2018-05-18T01:10:15.167Z,53.20
2018-05-18T01:12:42.640Z,53.30
2018-05-18T01:15:10.153Z,53.30
2018-05-18T01:17:37.683Z,53.30
2018-05-18T01:20:05.209Z,53.50
2018-05-18T01:22:33.558Z,53.80
2018-05-18T01:25:01.096Z,53.80
2018-05-18T01:27:28.933Z,54.00
2018-05-18T01:29:57.261Z,54.50
2018-05-18T01:32:24.798Z,54.50
2018-05-18T01:34:52.233Z,54.50
2018-05-18T01:37:20.077Z,54.40
2018-05-18T01:39:48.336Z,53.80
2018-05-18T01:42:16.804Z,53.80
2018-05-18T01:44:45.057Z,53.50
2018-05-18T01:47:12.891Z,53.50
2018-05-18T01:49:40.645Z,52.70
2018-05-18T01:52:08.082Z,52.70
2018-05-18T01:54:36.367Z,53.00
2018-05-18T01:57:03.872Z,53.00
2018-05-18T01:59:31.355Z,53.80
2018-05-18T02:01:58.902Z,54.30
2018-05-18T02:04:27.210Z,54.30
2018-05-18T02:06:55.461Z,54.30
2018-05-18T02:09:22.971Z,54.20
2018-05-18T02:11:50.439Z,54.10
2018-05-18T02:14:18.547Z,54.00
2018-05-18T02:16:46.095Z,54.10
2018-05-18T02:19:14.042Z,54.30
2018-05-18T02:21:42.403Z,53.80
2018-05-18T02:24:10.202Z,53.80
2018-05-18T02:26:38.459Z,53.90
2018-05-18T02:29:07.303Z,54.00
2018-05-18T02:31:35.983Z,54.30
2018-05-18T02:34:03.989Z,54.30
2018-05-18T02:36:33.046Z,54.20
2018-05-18T02:39:01.128Z,54.20
2018-05-18T02:41:28.637Z,54.50
2018-05-18T02:43:58.346Z,54.60
2018-05-18T02:46:26.682Z,54.40
2018-05-18T02:48:54.266Z,54.30
2018-05-18T02:51:22.919Z,54.20
2018-05-18T02:53:51.677Z,54.30
2018-05-18T02:56:19.228Z,54.30
2018-05-18T02:58:46.792Z,54.90
2018-05-18T03:01:15.223Z,54.60
2018-05-18T03:03:42.802Z,54.40
2018-05-18T03:06:11.124Z,53.60
2018-05-18T03:08:39.448Z,53.70
2018-05-18T03:11:06.939Z,53.60
2018-05-18T03:13:34.448Z,53.80
2018-05-18T03:16:01.963Z,52.80
2018-05-18T03:18:29.525Z,53.00
2018-05-18T03:20:57.932Z,53.70
2018-05-18T03:23:26.183Z,53.30
2018-05-18T03:25:54.432Z,53.80
2018-05-18T03:28:21.931Z,53.20
2018-05-18T03:30:49.440Z,52.70
2018-05-18T03:33:16.884Z,51.80
2018-05-18T03:35:45.383Z,51.40
2018-05-18T03:38:12.946Z,52.00
2018-05-18T03:40:43.668Z,51.30
2018-05-18T03:43:11.112Z,51.90
2018-05-18T03:45:39.959Z,51.80
2018-05-18T03:48:08.259Z,51.60
2018-05-18T03:50:36.200Z,51.60
2018-05-18T03:53:03.754Z,51.50
2018-05-18T03:55:34.371Z,50.70
2018-05-18T03:58:01.863Z,50.60
2018-05-18T04:00:30.100Z,50.90
2018-05-18T04:03:09.610Z,51.20
2018-05-18T04:05:49.163Z,50.80
2018-05-18T04:08:28.532Z,51.10
2018-05-18T04:10:56.819Z,51.40
2018-05-18T04:13:25.051Z,51.30
2018-05-18T04:15:52.544Z,51.30
2018-05-18T04:18:20.864Z,51.50
2018-05-18T04:20:48.370Z,51.50
2018-05-18T04:23:15.901Z,51.90
2018-05-18T04:25:43.474Z,51.60
2018-05-18T04:28:11.002Z,51.70
2018-05-18T04:30:39.185Z,51.40
2018-05-18T04:33:06.680Z,51.30
2018-05-18T04:35:35.335Z,51.10
2018-05-18T04:38:02.910Z,51.00
2018-05-18T04:40:30.940Z,51.00
2018-05-18T04:42:58.445Z,50.80
2018-05-18T04:45:28.048Z,50.70
2018-05-18T04:47:55.653Z,51.00
2018-05-18T04:50:23.189Z,50.80
2018-05-18T04:52:50.827Z,50.70
2018-05-18T04:55:18.372Z,50.80
2018-05-18T04:57:45.939Z,50.70
2018-05-18T05:00:13.403Z,50.70
2018-05-18T05:02:40.890Z,50.90
2018-05-18T05:05:08.443Z,51.70
2018-05-18T05:07:36.037Z,50.70
2018-05-18T05:10:03.616Z,50.60
2018-05-18T05:12:31.713Z,50.90
2018-05-18T05:14:59.233Z,50.50
2018-05-18T05:17:26.912Z,50.50
2018-05-18T05:19:54.387Z,49.90
2018-05-18T05:22:22.365Z,50.40
2018-05-18T05:24:49.888Z,50.20
2018-05-18T05:27:18.075Z,50.80
2018-05-18T05:29:45.659Z,50.60
2018-05-18T05:32:13.429Z,51.10
2018-05-18T05:34:40.941Z,51.30
2018-05-18T05:37:08.407Z,51.50
2018-05-18T05:39:35.927Z,51.60
2018-05-18T05:42:03.458Z,51.40
2018-05-18T05:44:31.672Z,50.70
2018-05-18T05:46:59.149Z,50.70
2018-05-18T05:49:26.591Z,49.80
2018-05-18T05:51:54.812Z,50.60
2018-05-18T05:54:23.049Z,50.70
2018-05-18T05:56:51.382Z,50.70
2018-05-18T05:59:19.112Z,50.80
2018-05-18T06:01:46.577Z,50.50
2018-05-18T06:04:15.003Z,50.50
2018-05-18T06:06:42.455Z,50.50
2018-05-18T06:09:10.534Z,50.60
2018-05-18T06:11:38.022Z,50.70
2018-05-18T06:14:07.086Z,51.00
2018-05-18T06:16:35.382Z,51.00
2018-05-18T06:19:02.934Z,50.90
2018-05-18T06:21:30.423Z,50.20
2018-05-18T06:23:57.949Z,49.90
2018-05-18T06:26:25.419Z,49.80
2018-05-18T06:28:52.868Z,49.60
2018-05-18T06:31:21.119Z,49.80
2018-05-18T06:33:49.372Z,49.40
2018-05-18T06:36:16.826Z,50.10
2018-05-18T06:38:44.332Z,49.90
2018-05-18T06:41:11.793Z,49.80
2018-05-18T06:43:39.242Z,50.20
2018-05-18T06:46:06.786Z,50.30
2018-05-18T06:48:34.232Z,50.30
2018-05-18T06:51:01.979Z,49.70
2018-05-18T06:53:29.467Z,50.60
2018-05-18T06:55:57.016Z,51.20
2018-05-18T06:58:24.542Z,51.90
2018-05-18T07:00:52.154Z,50.90
2018-05-18T07:03:19.632Z,51.00
2018-05-18T07:05:47.091Z,50.80
2018-05-18T07:08:16.055Z,48.70
2018-05-18T07:10:43.508Z,48.60
2018-05-18T07:13:10.956Z,49.90
2018-05-18T07:15:39.427Z,50.50
2018-05-18T07:18:06.883Z,49.70
2018-05-18T07:20:34.341Z,49.90
2018-05-18T07:23:01.817Z,50.00
2018-05-18T07:25:29.489Z,50.10
2018-05-18T07:27:57.027Z,50.70
2018-05-18T07:30:24.499Z,51.60
2018-05-18T07:32:52.015Z,49.20
2018-05-18T07:35:19.522Z,49.40
2018-05-18T07:37:47.240Z,50.60
2018-05-18T07:40:14.687Z,50.60
2018-05-18T07:42:42.180Z,51.20
2018-05-18T07:45:09.639Z,51.30
2018-05-18T07:47:37.102Z,50.90
2018-05-18T07:50:04.631Z,51.90
2018-05-18T07:52:32.016Z,50.80
2018-05-18T07:54:59.478Z,50.30
2018-05-18T07:57:26.951Z,49.70
2018-05-18T07:59:55.378Z,48.30
2018-05-18T08:02:22.828Z,48.20
2018-05-18T08:04:50.319Z,48.50
2018-05-18T08:07:17.828Z,49.60
2018-05-18T08:09:46.250Z,50.70
2018-05-18T08:12:13.751Z,50.70
2018-05-18T08:14:43.657Z,50.70
2018-05-18T08:17:11.214Z,50.70
2018-05-18T08:19:38.748Z,49.50
2018-05-18T08:22:06.239Z,49.80
2018-05-18T08:24:34.804Z,49.20
2018-05-18T08:27:14.228Z,49.20
2018-05-18T08:29:41.672Z,49.30
2018-05-18T08:32:09.140Z,50.20
2018-05-18T08:34:36.620Z,48.10
2018-05-18T08:37:04.068Z,48.40
2018-05-18T08:39:32.270Z,49.20
2018-05-18T08:42:00.501Z,51.10
2018-05-18T08:44:28.090Z,51.10
2018-05-18T08:46:55.489Z,49.20
2018-05-18T08:49:23.129Z,49.20
2018-05-18T08:51:50.603Z,49.70
2018-05-18T08:54:18.147Z,50.10
2018-05-18T08:56:47.288Z,51.60
2018-05-18T08:59:15.309Z,51.60
2018-05-18T09:01:43.710Z,50.70
2018-05-18T09:04:11.208Z,48.30
2018-05-18T09:06:38.683Z,47.80
2018-05-18T09:09:06.953Z,47.80
2018-05-18T09:11:36.751Z,48.90
2018-05-18T09:14:04.346Z,48.80
2018-05-18T09:16:31.959Z,49.10
2018-05-18T09:18:59.429Z,49.10
2018-05-18T09:21:26.869Z,49.10
2018-05-18T09:23:54.335Z,50.40
2018-05-18T09:26:21.833Z,51.00
2018-05-18T09:28:50.246Z,48.30
2018-05-18T09:31:17.700Z,48.20
2018-05-18T09:33:45.155Z,48.80
2018-05-18T09:36:12.606Z,49.20
2018-05-18T09:38:40.053Z,47.90
2018-05-18T09:41:08.745Z,45.30
2018-05-18T09:43:36.176Z,46.90
2018-05-18T09:46:04.636Z,47.30
2018-05-18T09:48:32.100Z,47.30
2018-05-18T09:51:00.396Z,45.30
2018-05-18T09:53:27.849Z,45.20
2018-05-18T09:55:55.611Z,46.10
2018-05-18T09:58:23.916Z,45.80
2018-05-18T10:00:51.376Z,45.90
2018-05-18T10:03:18.923Z,46.00
2018-05-18T10:05:46.482Z,46.00
2018-05-18T10:08:13.915Z,47.80
2018-05-18T10:10:41.387Z,47.10
2018-05-18T10:13:08.843Z,46.30
2018-05-18T10:15:36.290Z,45.80
2018-05-18T10:18:03.787Z,46.40
2018-05-18T10:20:31.228Z,45.20
2018-05-18T10:22:58.971Z,45.20
2018-05-18T10:25:26.479Z,45.60
2018-05-18T10:27:54.030Z,46.80
2018-05-18T10:30:29.255Z,45.90
2018-05-18T10:32:56.696Z,44.30
2018-05-18T10:35:24.160Z,45.10
2018-05-18T10:37:51.626Z,45.90
2018-05-18T10:40:19.070Z,45.80
2018-05-18T10:42:46.527Z,46.80
2018-05-18T10:45:14.007Z,45.50
2018-05-18T10:47:41.689Z,45.60
2018-05-18T10:50:09.127Z,46.10
2018-05-18T10:52:36.673Z,45.00
2018-05-18T10:55:04.136Z,46.90
2018-05-18T10:57:31.583Z,47.20
2018-05-18T10:59:59.059Z,46.30
2018-05-18T11:02:26.524Z,47.20
2018-05-18T11:04:54.843Z,44.80
2018-05-18T11:07:22.312Z,44.00
2018-05-18T11:09:49.803Z,43.30
2018-05-18T11:12:17.246Z,44.60
2018-05-18T11:14:44.934Z,45.60
2018-05-18T11:17:12.377Z,43.90
2018-05-18T11:19:40.169Z,44.90
2018-05-18T11:22:07.706Z,44.10
2018-05-18T11:24:35.212Z,42.20
2018-05-18T11:27:02.731Z,43.50
2018-05-18T11:29:30.198Z,43.50
2018-05-18T11:31:57.679Z,43.10
2018-05-18T11:34:25.129Z,42.70
2018-05-18T11:36:53.359Z,40.70
2018-05-18T11:39:20.809Z,40.60
2018-05-18T11:41:48.252Z,41.80
2018-05-18T11:44:15.712Z,42.70
2018-05-18T11:46:43.207Z,41.50
2018-05-18T11:49:10.658Z,40.10
2018-05-18T11:51:38.211Z,39.50
2018-05-18T11:54:05.671Z,39.40
2018-05-18T11:56:34.281Z,41.10
2018-05-18T11:59:05.710Z,39.50
2018-05-18T12:01:33.255Z,40.90
2018-05-18T12:04:02.224Z,41.70
2018-05-18T12:06:29.972Z,41.60
2018-05-18T12:08:57.402Z,39.70
2018-05-18T12:11:25.714Z,40.40
2018-05-18T12:13:53.183Z,40.30
2018-05-18T12:16:21.401Z,37.80
2018-05-18T12:18:49.021Z,37.40
2018-05-18T12:21:17.503Z,39.20
2018-05-18T12:23:44.981Z,38.90
2018-05-18T12:26:12.519Z,40.30
2018-05-18T12:28:39.977Z,38.40
2018-05-18T12:31:07.429Z,39.20
2018-05-18T12:33:34.880Z,40.00
2018-05-18T12:36:02.346Z,40.10
2018-05-18T12:38:29.786Z,38.80
2018-05-18T12:40:57.263Z,38.20
2018-05-18T12:43:24.867Z,38.20
2018-05-18T12:45:53.095Z,38.40
2018-05-18T12:48:20.669Z,38.40
2018-05-18T12:50:48.890Z,36.40
2018-05-18T12:53:16.353Z,36.30
2018-05-18T12:55:43.855Z,37.80
2018-05-18T12:58:11.463Z,37.50
2018-05-18T13:00:39.719Z,39.40
2018-05-18T13:03:07.983Z,38.80
2018-05-18T13:05:35.498Z,38.70
2018-05-18T13:08:06.539Z,37.70
2018-05-18T13:10:33.985Z,38.90
2018-05-18T13:13:02.000Z,38.20
2018-05-18T13:15:29.525Z,37.40
2018-05-18T13:17:56.965Z,37.40
2018-05-18T13:20:24.439Z,34.60
2018-05-18T13:22:51.890Z,35.90
2018-05-18T13:25:19.380Z,36.60
2018-05-18T13:27:46.846Z,35.80
2018-05-18T13:30:14.287Z,37.10
2018-05-18T13:32:41.743Z,37.30
2018-05-18T13:35:09.491Z,35.40
2018-05-18T13:37:36.929Z,34.30
2018-05-18T13:40:05.551Z,34.50
2018-05-18T13:42:33.117Z,34.50
2018-05-18T13:45:00.610Z,36.60
2018-05-18T13:47:28.051Z,36.00
2018-05-18T13:49:56.681Z,35.30
2018-05-18T13:52:24.131Z,35.20
2018-05-18T13:54:51.598Z,34.40
2018-05-18T13:57:19.172Z,35.50
2018-05-18T13:59:46.521Z,35.30
2018-05-18T14:02:13.963Z,36.70
2018-05-18T14:04:41.429Z,36.20
2018-05-18T14:07:08.892Z,35.20
2018-05-18T14:09:36.389Z,35.30
2018-05-18T14:12:04.625Z,37.20
2018-05-18T14:14:32.088Z,37.10
2018-05-18T14:16:59.548Z,36.10
2018-05-18T14:19:27.017Z,34.40
2018-05-18T14:21:56.352Z,37.70
2018-05-18T14:24:23.849Z,37.00
2018-05-18T14:26:51.366Z,37.30
2018-05-18T14:29:18.815Z,37.10
2018-05-18T14:31:46.508Z,36.60
2018-05-18T14:34:14.719Z,37.40
2018-05-18T14:36:42.154Z,37.30
2018-05-18T14:39:09.601Z,36.10
2018-05-18T14:41:37.061Z,36.90
2018-05-18T14:44:04.527Z,37.10
2018-05-18T14:46:31.982Z,36.40
2018-05-18T14:48:59.446Z,37.70
2018-05-18T14:51:26.891Z,38.20
2018-05-18T14:53:54.365Z,37.90
2018-05-18T14:56:21.929Z,37.20
2018-05-18T14:58:49.444Z,36.80
2018-05-18T15:01:16.938Z,37.80
2018-05-18T15:03:44.758Z,37.00
2018-05-18T15:06:12.262Z,35.50
2018-05-18T15:08:39.719Z,36.80
2018-05-18T15:11:08.983Z,35.70
2018-05-18T15:13:36.341Z,35.70
2018-05-18T15:16:04.599Z,35.90
2018-05-18T15:18:32.068Z,35.90
2018-05-18T15:20:59.535Z,35.60
2018-05-18T15:23:27.007Z,33.90
2018-05-18T15:25:54.629Z,33.40
2018-05-18T15:28:22.062Z,35.90
2018-05-18T15:30:49.539Z,36.80
2018-05-18T15:33:17.002Z,36.50
2018-05-18T15:35:44.569Z,37.40
2018-05-18T15:38:12.023Z,37.40
2018-05-18T15:40:40.149Z,37.00
2018-05-18T15:43:07.607Z,37.30
2018-05-18T15:45:36.340Z,36.70
2018-05-18T15:48:04.268Z,36.70
2018-05-18T15:50:32.614Z,38.00
2018-05-18T15:53:00.865Z,37.90
2018-05-18T15:55:28.406Z,37.50
2018-05-18T15:57:55.955Z,38.30
2018-05-18T16:00:23.407Z,37.90
2018-05-18T16:02:50.868Z,36.70
2018-05-18T16:05:18.356Z,37.80
2018-05-18T16:07:45.819Z,36.70
2018-05-18T16:10:13.295Z,38.10
2018-05-18T16:12:40.786Z,37.70
2018-05-18T16:15:09.947Z,39.40
2018-05-18T16:17:37.415Z,39.40
2018-05-18T16:20:04.867Z,38.90
2018-05-18T16:22:32.670Z,38.50
2018-05-18T16:25:00.198Z,39.10
2018-05-18T16:27:28.121Z,38.90
2018-05-18T16:29:55.662Z,38.10
2018-05-18T16:32:23.353Z,38.00
2018-05-18T16:34:50.786Z,38.90
2018-05-18T16:37:18.238Z,38.10
2018-05-18T16:39:45.733Z,38.50
2018-05-18T16:42:13.202Z,38.90
2018-05-18T16:44:41.038Z,39.70
2018-05-18T16:47:10.145Z,39.80
2018-05-18T16:49:37.588Z,40.00
2018-05-18T16:52:05.033Z,40.30
2018-05-18T16:54:32.517Z,40.60
2018-05-18T16:56:59.956Z,40.50
2018-05-18T16:59:27.407Z,39.70
2018-05-18T17:01:54.881Z,39.70
2018-05-18T17:04:22.451Z,39.50
2018-05-18T17:06:49.916Z,39.80
2018-05-18T17:09:19.556Z,39.00
2018-05-18T17:11:47.041Z,39.80
2018-05-18T17:14:17.163Z,39.80
2018-05-18T17:16:44.662Z,39.70
2018-05-18T17:19:12.267Z,39.30
2018-05-18T17:21:39.793Z,39.20
2018-05-18T17:24:07.503Z,39.60
2018-05-18T17:26:35.058Z,40.00
2018-05-18T17:29:02.562Z,39.60
2018-05-18T17:31:30.179Z,39.10
2018-05-18T17:33:57.758Z,39.10
2018-05-18T17:36:25.238Z,40.40
2018-05-18T17:38:52.980Z,40.70
2018-05-18T17:41:20.430Z,40.80
2018-05-18T17:43:47.887Z,40.40
2018-05-18T17:46:15.436Z,40.40
2018-05-18T17:48:42.927Z,40.10
2018-05-18T17:51:12.377Z,40.70
2018-05-18T17:53:39.943Z,40.60
2018-05-18T17:56:08.447Z,40.90
2018-05-18T17:58:36.760Z,41.10
2018-05-18T18:01:04.449Z,41.10
2018-05-18T18:03:32.140Z,41.50
2018-05-18T18:06:00.440Z,41.60
2018-05-18T18:08:27.985Z,41.90
2018-05-18T18:10:55.674Z,42.10
2018-05-18T18:13:23.377Z,41.80
2018-05-18T18:15:52.041Z,42.80
2018-05-18T18:18:19.721Z,42.80
2018-05-18T18:20:47.207Z,43.10
2018-05-18T18:23:14.688Z,42.80
2018-05-18T18:25:43.663Z,43.40
2018-05-18T18:28:11.150Z,43.30
2018-05-18T18:30:39.383Z,43.00
2018-05-18T18:33:06.860Z,42.90
2018-05-18T18:35:34.311Z,42.60
2018-05-18T18:38:01.816Z,43.20
2018-05-18T18:40:29.276Z,43.20
2018-05-18T18:42:57.651Z,42.90
2018-05-18T18:45:25.871Z,43.10
2018-05-18T18:47:53.367Z,43.00
2018-05-18T18:50:21.880Z,43.50
2018-05-18T18:52:51.153Z,43.50
2018-05-18T18:55:19.452Z,43.50
2018-05-18T18:57:47.070Z,43.40
2018-05-18T19:00:14.521Z,43.30
2018-05-18T19:02:42.079Z,43.30
2018-05-18T19:05:10.276Z,43.40
2018-05-18T19:07:38.825Z,43.40
2018-05-18T19:10:06.480Z,43.40
2018-05-18T19:12:34.149Z,44.20
2018-05-18T19:15:01.685Z,43.80
2018-05-18T19:17:29.164Z,44.10
2018-05-18T19:19:56.641Z,44.20
2018-05-18T19:22:24.132Z,44.20
2018-05-18T19:24:51.596Z,44.30
2018-05-18T19:27:19.096Z,44.50
2018-05-18T19:29:46.555Z,44.80
2018-05-18T19:32:14.018Z,44.70
2018-05-18T19:34:41.516Z,45.10
2018-05-18T19:37:09.026Z,45.00
2018-05-18T19:39:36.561Z,45.10
2018-05-18T19:42:04.008Z,45.10
2018-05-18T19:44:31.615Z,44.90
2018-05-18T19:46:59.192Z,45.10
2018-05-18T19:49:26.658Z,45.20
2018-05-18T19:51:54.147Z,45.50
2018-05-18T19:54:21.594Z,45.60
2018-05-18T19:56:49.071Z,46.30
2018-05-18T19:59:16.515Z,46.50
2018-05-18T20:01:43.997Z,46.30
2018-05-18T20:04:11.444Z,46.30
2018-05-18T20:06:39.226Z,46.00
2018-05-18T20:09:07.430Z,46.70
2018-05-18T20:11:35.906Z,46.70
2018-05-18T20:14:04.193Z,47.20
2018-05-18T20:16:31.816Z,47.20
2018-05-18T20:18:59.581Z,46.90
2018-05-18T20:21:27.450Z,47.30
2018-05-18T20:23:54.940Z,46.90
2018-05-18T20:26:22.486Z,47.20
2018-05-18T20:28:50.719Z,47.00
2018-05-18T20:31:18.244Z,46.90
2018-05-18T20:33:45.820Z,46.80
2018-05-18T20:36:13.263Z,47.10
2018-05-18T20:38:40.747Z,47.20
2018-05-18T20:41:08.201Z,47.20
2018-05-18T20:43:35.673Z,47.30
2018-05-18T20:46:03.132Z,47.50
2018-05-18T20:48:32.113Z,47.60
2018-05-18T20:50:59.584Z,47.60
2018-05-18T20:53:27.073Z,47.50
2018-05-18T20:55:54.547Z,48.00
2018-05-18T20:58:22.041Z,47.70
2018-05-18T21:00:49.493Z,47.80
2018-05-18T21:03:17.141Z,47.50
2018-05-18T21:05:45.426Z,47.50
2018-05-18T21:08:12.938Z,47.50
2018-05-18T21:10:40.488Z,47.60
2018-05-18T21:13:07.988Z,47.90
2018-05-18T21:15:35.439Z,47.80
2018-05-18T21:18:02.900Z,48.00
2018-05-18T21:20:31.880Z,48.30
2018-05-18T21:22:59.337Z,48.40
2018-05-18T21:25:26.822Z,48.50
2018-05-18T21:27:54.280Z,48.80
2018-05-18T21:30:21.922Z,48.80
2018-05-18T21:32:49.419Z,48.70
2018-05-18T21:35:16.940Z,48.80
2018-05-18T21:37:44.390Z,49.00
2018-05-18T21:40:11.893Z,49.00
2018-05-18T21:42:40.113Z,49.00
2018-05-18T21:45:08.082Z,48.90
2018-05-18T21:47:35.768Z,49.10
2018-05-18T21:50:03.207Z,49.20
2018-05-18T21:52:30.692Z,49.40
2018-05-18T21:54:58.160Z,49.50
2018-05-18T21:57:25.708Z,49.50
2018-05-18T21:59:53.169Z,49.90
2018-05-18T22:02:20.620Z,50.10
2018-05-18T22:04:48.088Z,50.20
2018-05-18T22:07:17.052Z,50.20
2018-05-18T22:09:44.532Z,50.30
2018-05-18T22:12:14.519Z,50.40
2018-05-18T22:14:41.969Z,50.30
2018-05-18T22:17:10.252Z,50.30
2018-05-18T22:19:37.739Z,50.70
2018-05-18T22:22:05.212Z,50.90
2018-05-18T22:24:33.435Z,50.90
2018-05-18T22:27:01.394Z,50.80
2018-05-18T22:29:28.855Z,50.90
2018-05-18T22:31:57.964Z,50.90
2018-05-18T22:34:25.510Z,50.90
2018-05-18T22:36:54.598Z,51.30
2018-05-18T22:39:22.067Z,51.30
2018-05-18T22:41:50.505Z,51.30
2018-05-18T22:44:18.825Z,51.90
2018-05-18T22:46:46.372Z,51.60
2018-05-18T22:49:14.341Z,51.80
2018-05-18T22:51:45.486Z,51.80
2018-05-18T22:54:19.954Z,52.40
2018-05-18T22:56:47.503Z,52.40
2018-05-18T22:59:14.971Z,52.40
2018-05-18T23:01:43.239Z,52.40
2018-05-18T23:04:11.456Z,52.60
2018-05-18T23:06:42.063Z,52.60
2018-05-18T23:09:10.305Z,52.70
2018-05-18T23:11:37.799Z,52.70
2018-05-18T23:14:06.077Z,53.10
2018-05-18T23:16:33.949Z,53.00
2018-05-18T23:19:02.491Z,53.00
2018-05-18T23:21:30.711Z,53.10
2018-05-18T23:23:58.200Z,53.10
2018-05-18T23:26:29.535Z,53.30
2018-05-18T23:29:00.841Z,53.50
2018-05-18T23:31:29.503Z,53.80
2018-05-18T23:33:56.987Z,53.80
2018-05-18T23:36:25.215Z,53.90
2018-05-18T23:38:55.883Z,53.80
2018-05-18T23:41:24.145Z,54.60
2018-05-18T23:43:51.622Z,54.10
2018-05-18T23:46:19.837Z,54.40
2018-05-18T23:48:47.380Z,54.40
2018-05-18T23:51:14.867Z,54.80
2018-05-18T23:53:42.365Z,54.80
2018-05-18T23:56:09.859Z,54.80
2018-05-18T23:58:37.423Z,54.90
